createdAt,value
2022-09-16T00:10:52.086Z,2.1
2022-09-16T00:40:54.479Z,3.5
2022-09-16T01:10:53.851Z,2.2
2022-09-16T01:40:57.737Z,1.1
2022-09-16T02:11:03.887Z,2.1
2022-09-16T02:40:59.785Z,3.6
2022-09-16T03:11:01.080Z,2.3
2022-09-16T03:41:00.741Z,4.8
2022-09-16T04:11:03.946Z,3.8
2022-09-16T04:41:07.621Z,1.4
2022-09-16T05:11:05.917Z,1.5
2022-09-16T05:41:07.047Z,2.3
2022-09-16T06:11:08.377Z,2.6
2022-09-16T06:41:10.087Z,3.9
2022-09-16T07:11:10.595Z,2.9
2022-09-16T07:41:17.961Z,2.1
2022-09-16T08:11:12.511Z,2.8
2022-09-16T08:41:36.313Z,2.5
2022-09-16T09:11:18.837Z,2.5
2022-09-16T09:41:16.857Z,2.8
2022-09-16T10:11:23.903Z,5.4
2022-09-16T10:41:24.800Z,6.7
2022-09-16T11:11:26.937Z,7.1
2022-09-16T11:41:28.485Z,5.1
2022-09-16T12:11:32.936Z,3.7
2022-09-16T12:41:43.034Z,6.7
2022-09-16T13:12:24.090Z,2.6
2022-09-16T13:41:37.824Z,3.6
2022-09-16T14:11:41.486Z,6.1
2022-09-16T14:41:41.453Z,6.3
2022-09-16T15:11:51.863Z,3.9
2022-09-16T15:41:44.518Z,3.7
2022-09-16T16:11:47.446Z,6.7
2022-09-16T16:41:49.091Z,5.7
2022-09-16T17:11:58.419Z,6.6
2022-09-16T17:41:54.271Z,6
2022-09-16T18:11:54.759Z,6.6
2022-09-16T18:41:57.400Z,6.3
2022-09-16T19:11:58.796Z,4
2022-09-16T19:42:05.533Z,3.7
2022-09-16T20:12:01.114Z,4.9
2022-09-16T20:42:02.439Z,7
2022-09-16T21:12:04.636Z,6.7
2022-09-16T21:42:06.559Z,8
2022-09-16T22:12:07.233Z,7.7
2022-09-16T22:42:07.064Z,8.6
2022-09-16T23:12:09.776Z,7.6
2022-09-16T23:42:11.900Z,4.6
